Asbury Park, New Jersey
Current Conditions -  °F | °C
As of 11:35 AM on Friday 19 Dec 2014 (Local Time) from KBLM Reporting Station
Overcast Overcast  
Wind Chill: 29°   Ceiling: 3500
Heat Index: 37°   Visibility: 10mi
Dew Point: 21°   Wind: 14mph
Humidity: 52%   Direction: 290°WNW
Pressure: 30.04"   Gusts: NA
Location:  40.22°N, 74.01°W
Report Text: KBLM 191635Z AUTO 29012KT 10SM OVC035 03/M06 A3004 RMK AO1
Loading
Personal Weather Stations






























Interactive Weather Map New forecast layout! Learn more

10-Day Weather Forecast

Advertisements
Track Severe Weather on mobile